sensor_id;sensor_type;location;lat;lon;timestamp;P1;durP1;ratioP1;P2;durP2;ratioP2
78581;SDS011;67878;46.242;5.974;2023-11-21T00:01:15;1.48;;;0.98;;
78581;SDS011;67878;46.242;5.974;2023-11-21T00:03:40;1.10;;;0.70;;
78581;SDS011;67878;46.242;5.974;2023-11-21T00:06:06;1.63;;;0.85;;
78581;SDS011;67878;46.242;5.974;2023-11-21T00:11:00;1.20;;;0.80;;
78581;SDS011;67878;46.242;5.974;2023-11-21T00:13:26;1.20;;;0.88;;
78581;SDS011;67878;46.242;5.974;2023-11-21T00:15:52;1.75;;;0.90;;
78581;SDS011;67878;46.242;5.974;2023-11-21T00:18:17;2.70;;;0.93;;
78581;SDS011;67878;46.242;5.974;2023-11-21T00:20:43;3.35;;;0.77;;
78581;SDS011;67878;46.242;5.974;2023-11-21T00:23:08;2.35;;;1.00;;
78581;SDS011;67878;46.242;5.974;2023-11-21T00:25:34;2.10;;;0.90;;
78581;SDS011;67878;46.242;5.974;2023-11-21T00:28:00;2.72;;;1.00;;
78581;SDS011;67878;46.242;5.974;2023-11-21T00:30:26;2.35;;;0.75;;
78581;SDS011;67878;46.242;5.974;2023-11-21T00:32:52;1.30;;;0.90;;
78581;SDS011;67878;46.242;5.974;2023-11-21T00:35:18;1.20;;;0.70;;
78581;SDS011;67878;46.242;5.974;2023-11-21T00:37:43;1.30;;;0.77;;
78581;SDS011;67878;46.242;5.974;2023-11-21T00:40:09;1.35;;;0.90;;
78581;SDS011;67878;46.242;5.974;2023-11-21T00:42:35;1.35;;;0.70;;
78581;SDS011;67878;46.242;5.974;2023-11-21T00:45:00;2.22;;;0.77;;
78581;SDS011;67878;46.242;5.974;2023-11-21T00:47:26;1.20;;;0.80;;
78581;SDS011;67878;46.242;5.974;2023-11-21T00:49:51;1.73;;;0.88;;
78581;SDS011;67878;46.242;5.974;2023-11-21T00:52:17;1.02;;;0.63;;
78581;SDS011;67878;46.242;5.974;2023-11-21T00:54:43;1.42;;;0.77;;
78581;SDS011;67878;46.242;5.974;2023-11-21T00:57:09;2.20;;;0.77;;
78581;SDS011;67878;46.242;5.974;2023-11-21T00:59:37;1.27;;;0.70;;
78581;SDS011;67878;46.242;5.974;2023-11-21T01:02:02;2.67;;;0.60;;
78581;SDS011;67878;46.242;5.974;2023-11-21T01:04:30;1.83;;;0.90;;
78581;SDS011;67878;46.242;5.974;2023-11-21T01:06:57;0.77;;;0.68;;
78581;SDS011;67878;46.242;5.974;2023-11-21T01:09:22;1.60;;;0.68;;
78581;SDS011;67878;46.242;5.974;2023-11-21T01:11:49;0.90;;;0.80;;
78581;SDS011;67878;46.242;5.974;2023-11-21T01:14:14;1.92;;;0.90;;
78581;SDS011;67878;46.242;5.974;2023-11-21T01:16:40;1.35;;;0.90;;
78581;SDS011;67878;46.242;5.974;2023-11-21T01:19:05;1.27;;;0.77;;
78581;SDS011;67878;46.242;5.974;2023-11-21T01:21:31;1.75;;;0.77;;
78581;SDS011;67878;46.242;5.974;2023-11-21T01:23:57;1.05;;;0.68;;
78581;SDS011;67878;46.242;5.974;2023-11-21T01:26:22;2.03;;;0.85;;
78581;SDS011;67878;46.242;5.974;2023-11-21T01:28:48;1.23;;;0.70;;
78581;SDS011;67878;46.242;5.974;2023-11-21T01:31:14;0.88;;;0.63;;
78581;SDS011;67878;46.242;5.974;2023-11-21T01:33:40;3.53;;;0.70;;
78581;SDS011;67878;46.242;5.974;2023-11-21T01:36:05;0.95;;;0.50;;
78581;SDS011;67878;46.242;5.974;2023-11-21T01:38:31;1.40;;;0.70;;
78581;SDS011;67878;46.242;5.974;2023-11-21T01:40:57;2.08;;;0.70;;
78581;SDS011;67878;46.242;5.974;2023-11-21T01:43:22;1.63;;;0.68;;
78581;SDS011;67878;46.242;5.974;2023-11-21T01:45:48;1.17;;;0.75;;
78581;SDS011;67878;46.242;5.974;2023-11-21T01:48:14;1.20;;;0.63;;
78581;SDS011;67878;46.242;5.974;2023-11-21T01:50:41;2.30;;;0.82;;
78581;SDS011;67878;46.242;5.974;2023-11-21T01:53:07;1.83;;;0.70;;
78581;SDS011;67878;46.242;5.974;2023-11-21T01:55:33;1.88;;;0.60;;
78581;SDS011;67878;46.242;5.974;2023-11-21T01:57:59;2.13;;;0.60;;
78581;SDS011;67878;46.242;5.974;2023-11-21T02:00:25;1.95;;;0.75;;
78581;SDS011;67878;46.242;5.974;2023-11-21T02:02:53;2.35;;;0.80;;
78581;SDS011;67878;46.242;5.974;2023-11-21T02:05:18;2.38;;;0.80;;
78581;SDS011;67878;46.242;5.974;2023-11-21T02:07:46;1.58;;;0.63;;
78581;SDS011;67878;46.242;5.974;2023-11-21T02:10:13;1.55;;;0.70;;
78581;SDS011;67878;46.242;5.974;2023-11-21T02:12:43;1.60;;;0.80;;
78581;SDS011;67878;46.242;5.974;2023-11-21T02:15:12;0.95;;;0.60;;
78581;SDS011;67878;46.242;5.974;2023-11-21T02:17:51;1.65;;;0.80;;
78581;SDS011;67878;46.242;5.974;2023-11-21T02:20:18;2.15;;;0.75;;
78581;SDS011;67878;46.242;5.974;2023-11-21T02:22:51;2.17;;;0.60;;
78581;SDS011;67878;46.242;5.974;2023-11-21T02:25:23;1.88;;;0.60;;
78581;SDS011;67878;46.242;5.974;2023-11-21T02:27:49;2.65;;;0.88;;
78581;SDS011;67878;46.242;5.974;2023-11-21T02:30:14;1.75;;;0.55;;
78581;SDS011;67878;46.242;5.974;2023-11-21T02:32:41;0.93;;;0.60;;
78581;SDS011;67878;46.242;5.974;2023-11-21T02:35:07;2.40;;;0.75;;
78581;SDS011;67878;46.242;5.974;2023-11-21T02:37:33;1.35;;;0.60;;
78581;SDS011;67878;46.242;5.974;2023-11-21T02:40:00;1.70;;;0.60;;
78581;SDS011;67878;46.242;5.974;2023-11-21T02:42:27;2.42;;;0.80;;
78581;SDS011;67878;46.242;5.974;2023-11-21T02:44:53;2.58;;;0.60;;
78581;SDS011;67878;46.242;5.974;2023-11-21T02:47:18;3.25;;;0.80;;
78581;SDS011;67878;46.242;5.974;2023-11-21T02:49:43;0.93;;;0.60;;
78581;SDS011;67878;46.242;5.974;2023-11-21T02:52:09;0.75;;;0.60;;
78581;SDS011;67878;46.242;5.974;2023-11-21T02:54:34;1.00;;;0.38;;
78581;SDS011;67878;46.242;5.974;2023-11-21T02:57:01;1.02;;;0.47;;
78581;SDS011;67878;46.242;5.974;2023-11-21T02:59:27;1.33;;;0.50;;
78581;SDS011;67878;46.242;5.974;2023-11-21T03:01:53;1.40;;;0.60;;
78581;SDS011;67878;46.242;5.974;2023-11-21T03:04:18;1.02;;;0.70;;
78581;SDS011;67878;46.242;5.974;2023-11-21T03:06:44;1.02;;;0.50;;
78581;SDS011;67878;46.242;5.974;2023-11-21T03:09:10;2.08;;;0.70;;
78581;SDS011;67878;46.242;5.974;2023-11-21T03:11:39;1.25;;;0.60;;
78581;SDS011;67878;46.242;5.974;2023-11-21T03:14:04;2.45;;;0.63;;
78581;SDS011;67878;46.242;5.974;2023-11-21T03:16:31;1.75;;;0.80;;
78581;SDS011;67878;46.242;5.974;2023-11-21T03:18:57;0.93;;;0.57;;
78581;SDS011;67878;46.242;5.974;2023-11-21T03:21:23;0.80;;;0.50;;
78581;SDS011;67878;46.242;5.974;2023-11-21T03:23:49;0.70;;;0.55;;
78581;SDS011;67878;46.242;5.974;2023-11-21T03:26:15;0.80;;;0.55;;
78581;SDS011;67878;46.242;5.974;2023-11-21T03:28:41;3.03;;;0.82;;
78581;SDS011;67878;46.242;5.974;2023-11-21T03:31:07;2.08;;;0.60;;
78581;SDS011;67878;46.242;5.974;2023-11-21T03:33:33;1.17;;;0.57;;
78581;SDS011;67878;46.242;5.974;2023-11-21T03:36:00;1.38;;;0.50;;
78581;SDS011;67878;46.242;5.974;2023-11-21T03:38:25;1.95;;;0.55;;
78581;SDS011;67878;46.242;5.974;2023-11-21T03:40:51;2.03;;;0.68;;
78581;SDS011;67878;46.242;5.974;2023-11-21T03:43:16;1.38;;;0.60;;
78581;SDS011;67878;46.242;5.974;2023-11-21T03:45:42;1.15;;;0.50;;
78581;SDS011;67878;46.242;5.974;2023-11-21T03:48:07;2.20;;;0.65;;
78581;SDS011;67878;46.242;5.974;2023-11-21T03:50:33;0.88;;;0.57;;
78581;SDS011;67878;46.242;5.974;2023-11-21T03:52:59;1.10;;;0.50;;
78581;SDS011;67878;46.242;5.974;2023-11-21T03:55:25;1.15;;;0.70;;
78581;SDS011;67878;46.242;5.974;2023-11-21T03:57:50;1.15;;;0.50;;
78581;SDS011;67878;46.242;5.974;2023-11-21T04:00:16;1.05;;;0.52;;
78581;SDS011;67878;46.242;5.974;2023-11-21T04:02:42;0.82;;;0.60;;
78581;SDS011;67878;46.242;5.974;2023-11-21T04:05:08;4.10;;;0.57;;
78581;SDS011;67878;46.242;5.974;2023-11-21T04:07:34;1.27;;;0.60;;
78581;SDS011;67878;46.242;5.974;2023-11-21T04:10:00;0.73;;;0.40;;
78581;SDS011;67878;46.242;5.974;2023-11-21T04:12:26;0.65;;;0.40;;
78581;SDS011;67878;46.242;5.974;2023-11-21T04:14:51;1.17;;;0.60;;
78581;SDS011;67878;46.242;5.974;2023-11-21T04:17:20;1.23;;;0.47;;
78581;SDS011;67878;46.242;5.974;2023-11-21T04:19:45;0.73;;;0.47;;
78581;SDS011;67878;46.242;5.974;2023-11-21T04:22:11;1.75;;;0.60;;
78581;SDS011;67878;46.242;5.974;2023-11-21T04:24:37;3.53;;;0.60;;
78581;SDS011;67878;46.242;5.974;2023-11-21T04:27:02;1.05;;;0.50;;
78581;SDS011;67878;46.242;5.974;2023-11-21T04:29:28;3.17;;;0.43;;
78581;SDS011;67878;46.242;5.974;2023-11-21T04:31:53;1.33;;;0.52;;
78581;SDS011;67878;46.242;5.974;2023-11-21T04:34:19;1.00;;;0.40;;
78581;SDS011;67878;46.242;5.974;2023-11-21T04:36:44;2.47;;;0.70;;
78581;SDS011;67878;46.242;5.974;2023-11-21T04:39:09;2.65;;;0.68;;
78581;SDS011;67878;46.242;5.974;2023-11-21T04:41:36;5.53;;;0.55;;
78581;SDS011;67878;46.242;5.974;2023-11-21T04:44:04;4.97;;;0.73;;
78581;SDS011;67878;46.242;5.974;2023-11-21T04:46:30;1.67;;;0.55;;
78581;SDS011;67878;46.242;5.974;2023-11-21T04:48:56;2.28;;;0.60;;
78581;SDS011;67878;46.242;5.974;2023-11-21T04:51:22;2.22;;;0.60;;
78581;SDS011;67878;46.242;5.974;2023-11-21T04:53:47;2.53;;;0.50;;
78581;SDS011;67878;46.242;5.974;2023-11-21T04:56:13;2.55;;;0.60;;
78581;SDS011;67878;46.242;5.974;2023-11-21T04:58:38;3.05;;;0.73;;
78581;SDS011;67878;46.242;5.974;2023-11-21T05:01:06;3.53;;;0.55;;
78581;SDS011;67878;46.242;5.974;2023-11-21T05:03:32;2.95;;;0.80;;
78581;SDS011;67878;46.242;5.974;2023-11-21T05:05:57;4.45;;;0.75;;
78581;SDS011;67878;46.242;5.974;2023-11-21T05:08:24;1.33;;;0.60;;
78581;SDS011;67878;46.242;5.974;2023-11-21T05:10:51;0.90;;;0.60;;
78581;SDS011;67878;46.242;5.974;2023-11-21T05:13:17;3.20;;;0.70;;
78581;SDS011;67878;46.242;5.974;2023-11-21T05:15:43;3.00;;;0.60;;
78581;SDS011;67878;46.242;5.974;2023-11-21T05:18:09;2.05;;;0.60;;
78581;SDS011;67878;46.242;5.974;2023-11-21T05:20:35;1.60;;;0.60;;
78581;SDS011;67878;46.242;5.974;2023-11-21T05:23:01;2.72;;;0.77;;
78581;SDS011;67878;46.242;5.974;2023-11-21T05:25:26;1.10;;;0.60;;
78581;SDS011;67878;46.242;5.974;2023-11-21T05:27:52;1.08;;;0.60;;
78581;SDS011;67878;46.242;5.974;2023-11-21T05:30:18;3.17;;;0.60;;
78581;SDS011;67878;46.242;5.974;2023-11-21T05:32:44;3.33;;;0.80;;
78581;SDS011;67878;46.242;5.974;2023-11-21T05:35:09;5.75;;;0.80;;
78581;SDS011;67878;46.242;5.974;2023-11-21T05:37:40;1.98;;;0.55;;
78581;SDS011;67878;46.242;5.974;2023-11-21T05:40:06;3.53;;;0.70;;
78581;SDS011;67878;46.242;5.974;2023-11-21T05:42:33;0.57;;;0.47;;
78581;SDS011;67878;46.242;5.974;2023-11-21T05:44:59;3.05;;;0.60;;
78581;SDS011;67878;46.242;5.974;2023-11-21T05:47:35;2.33;;;0.52;;
78581;SDS011;67878;46.242;5.974;2023-11-21T05:50:01;1.65;;;0.55;;
78581;SDS011;67878;46.242;5.974;2023-11-21T05:52:27;1.30;;;0.75;;
78581;SDS011;67878;46.242;5.974;2023-11-21T05:54:52;1.50;;;0.63;;
78581;SDS011;67878;46.242;5.974;2023-11-21T05:57:19;0.95;;;0.55;;
78581;SDS011;67878;46.242;5.974;2023-11-21T05:59:48;2.50;;;0.90;;
78581;SDS011;67878;46.242;5.974;2023-11-21T06:02:14;1.70;;;0.85;;
78581;SDS011;67878;46.242;5.974;2023-11-21T06:04:39;1.88;;;0.80;;
78581;SDS011;67878;46.242;5.974;2023-11-21T06:07:05;4.82;;;0.90;;
78581;SDS011;67878;46.242;5.974;2023-11-21T06:09:30;2.15;;;0.60;;
78581;SDS011;67878;46.242;5.974;2023-11-21T06:11:59;2.13;;;0.68;;
78581;SDS011;67878;46.242;5.974;2023-11-21T06:14:24;1.38;;;0.60;;
78581;SDS011;67878;46.242;5.974;2023-11-21T06:16:50;1.52;;;0.70;;
78581;SDS011;67878;46.242;5.974;2023-11-21T06:19:16;1.10;;;0.55;;
78581;SDS011;67878;46.242;5.974;2023-11-21T06:21:45;2.10;;;0.73;;
78581;SDS011;67878;46.242;5.974;2023-11-21T06:24:11;1.20;;;0.73;;
78581;SDS011;67878;46.242;5.974;2023-11-21T06:26:37;1.48;;;0.70;;
78581;SDS011;67878;46.242;5.974;2023-11-21T06:29:05;1.27;;;0.50;;
78581;SDS011;67878;46.242;5.974;2023-11-21T06:31:33;1.20;;;0.90;;
78581;SDS011;67878;46.242;5.974;2023-11-21T06:33:58;2.75;;;0.90;;
78581;SDS011;67878;46.242;5.974;2023-11-21T06:36:25;4.63;;;1.08;;
78581;SDS011;67878;46.242;5.974;2023-11-21T06:38:55;1.80;;;1.15;;
78581;SDS011;67878;46.242;5.974;2023-11-21T06:41:20;3.53;;;1.10;;
78581;SDS011;67878;46.242;5.974;2023-11-21T06:43:45;2.90;;;1.10;;
78581;SDS011;67878;46.242;5.974;2023-11-21T06:46:12;2.72;;;0.70;;
78581;SDS011;67878;46.242;5.974;2023-11-21T06:48:39;1.67;;;0.70;;
78581;SDS011;67878;46.242;5.974;2023-11-21T06:51:07;3.17;;;0.88;;
78581;SDS011;67878;46.242;5.974;2023-11-21T06:53:32;1.17;;;0.77;;
78581;SDS011;67878;46.242;5.974;2023-11-21T06:55:58;1.23;;;0.80;;
78581;SDS011;67878;46.242;5.974;2023-11-21T06:58:23;3.13;;;0.93;;
78581;SDS011;67878;46.242;5.974;2023-11-21T07:00:49;2.05;;;0.55;;
78581;SDS011;67878;46.242;5.974;2023-11-21T07:03:15;2.20;;;0.68;;
78581;SDS011;67878;46.242;5.974;2023-11-21T07:05:40;1.00;;;0.60;;
78581;SDS011;67878;46.242;5.974;2023-11-21T07:08:06;3.13;;;0.90;;
78581;SDS011;67878;46.242;5.974;2023-11-21T07:10:32;3.55;;;0.80;;
78581;SDS011;67878;46.242;5.974;2023-11-21T07:12:58;1.15;;;0.75;;
78581;SDS011;67878;46.242;5.974;2023-11-21T07:15:23;3.15;;;0.90;;
78581;SDS011;67878;46.242;5.974;2023-11-21T07:17:50;2.08;;;0.82;;
78581;SDS011;67878;46.242;5.974;2023-11-21T07:20:16;3.13;;;0.93;;
78581;SDS011;67878;46.242;5.974;2023-11-21T07:22:42;2.03;;;1.00;;
78581;SDS011;67878;46.242;5.974;2023-11-21T07:25:07;1.90;;;1.05;;
78581;SDS011;67878;46.242;5.974;2023-11-21T07:27:34;1.42;;;0.90;;
78581;SDS011;67878;46.242;5.974;2023-11-21T07:30:01;1.65;;;0.90;;
78581;SDS011;67878;46.242;5.974;2023-11-21T07:32:30;1.88;;;0.90;;
78581;SDS011;67878;46.242;5.974;2023-11-21T07:34:56;1.48;;;1.10;;
78581;SDS011;67878;46.242;5.974;2023-11-21T07:37:24;2.33;;;1.10;;
78581;SDS011;67878;46.242;5.974;2023-11-21T07:39:51;1.20;;;0.90;;
78581;SDS011;67878;46.242;5.974;2023-11-21T07:42:21;1.10;;;0.93;;
78581;SDS011;67878;46.242;5.974;2023-11-21T07:44:47;2.10;;;1.02;;
78581;SDS011;67878;46.242;5.974;2023-11-21T07:47:12;2.22;;;0.95;;
78581;SDS011;67878;46.242;5.974;2023-11-21T07:49:37;2.15;;;0.80;;
78581;SDS011;67878;46.242;5.974;2023-11-21T07:52:03;1.08;;;0.70;;
78581;SDS011;67878;46.242;5.974;2023-11-21T07:54:28;4.05;;;0.82;;
78581;SDS011;67878;46.242;5.974;2023-11-21T07:56:54;1.75;;;0.98;;
78581;SDS011;67878;46.242;5.974;2023-11-21T07:59:19;2.80;;;1.13;;
78581;SDS011;67878;46.242;5.974;2023-11-21T08:01:44;3.65;;;1.15;;
78581;SDS011;67878;46.242;5.974;2023-11-21T08:04:11;3.67;;;1.05;;
78581;SDS011;67878;46.242;5.974;2023-11-21T08:06:36;4.78;;;1.20;;
78581;SDS011;67878;46.242;5.974;2023-11-21T08:09:03;2.15;;;1.10;;
78581;SDS011;67878;46.242;5.974;2023-11-21T08:11:33;4.30;;;1.17;;
78581;SDS011;67878;46.242;5.974;2023-11-21T08:13:58;3.08;;;1.00;;
78581;SDS011;67878;46.242;5.974;2023-11-21T08:16:24;2.25;;;1.08;;
78581;SDS011;67878;46.242;5.974;2023-11-21T08:18:50;4.45;;;1.10;;
78581;SDS011;67878;46.242;5.974;2023-11-21T08:21:16;3.05;;;0.95;;
78581;SDS011;67878;46.242;5.974;2023-11-21T08:23:41;1.50;;;1.02;;
78581;SDS011;67878;46.242;5.974;2023-11-21T08:26:08;1.60;;;1.00;;
78581;SDS011;67878;46.242;5.974;2023-11-21T08:28:36;2.00;;;0.90;;
78581;SDS011;67878;46.242;5.974;2023-11-21T08:31:01;2.50;;;1.60;;
78581;SDS011;67878;46.242;5.974;2023-11-21T08:33:27;2.22;;;1.45;;
78581;SDS011;67878;46.242;5.974;2023-11-21T08:35:52;3.90;;;1.58;;
78581;SDS011;67878;46.242;5.974;2023-11-21T08:38:18;2.00;;;1.48;;
78581;SDS011;67878;46.242;5.974;2023-11-21T08:40:43;1.25;;;0.90;;
78581;SDS011;67878;46.242;5.974;2023-11-21T08:43:09;2.47;;;1.00;;
78581;SDS011;67878;46.242;5.974;2023-11-21T08:45:37;1.60;;;1.30;;
78581;SDS011;67878;46.242;5.974;2023-11-21T08:48:02;4.88;;;1.42;;
78581;SDS011;67878;46.242;5.974;2023-11-21T08:50:28;3.60;;;2.15;;
78581;SDS011;67878;46.242;5.974;2023-11-21T08:52:54;4.15;;;2.30;;
78581;SDS011;67878;46.242;5.974;2023-11-21T08:55:19;6.72;;;2.00;;
78581;SDS011;67878;46.242;5.974;2023-11-21T08:57:45;6.53;;;1.70;;
78581;SDS011;67878;46.242;5.974;2023-11-21T09:00:12;3.63;;;1.77;;
78581;SDS011;67878;46.242;5.974;2023-11-21T09:02:38;2.45;;;1.35;;
78581;SDS011;67878;46.242;5.974;2023-11-21T09:05:08;1.75;;;1.10;;
78581;SDS011;67878;46.242;5.974;2023-11-21T09:07:36;2.47;;;1.20;;
78581;SDS011;67878;46.242;5.974;2023-11-21T09:10:03;1.98;;;1.00;;
78581;SDS011;67878;46.242;5.974;2023-11-21T09:12:32;2.15;;;1.10;;
78581;SDS011;67878;46.242;5.974;2023-11-21T09:14:58;1.98;;;1.13;;
78581;SDS011;67878;46.242;5.974;2023-11-21T09:17:24;2.65;;;1.10;;
78581;SDS011;67878;46.242;5.974;2023-11-21T09:19:58;2.35;;;1.30;;
78581;SDS011;67878;46.242;5.974;2023-11-21T09:22:23;1.83;;;0.90;;
78581;SDS011;67878;46.242;5.974;2023-11-21T09:24:54;2.00;;;1.02;;
78581;SDS011;67878;46.242;5.974;2023-11-21T09:27:21;1.60;;;0.90;;
78581;SDS011;67878;46.242;5.974;2023-11-21T09:29:47;1.58;;;0.93;;
78581;SDS011;67878;46.242;5.974;2023-11-21T09:32:12;2.35;;;0.90;;
78581;SDS011;67878;46.242;5.974;2023-11-21T09:34:39;1.70;;;0.98;;
78581;SDS011;67878;46.242;5.974;2023-11-21T09:37:05;1.85;;;0.90;;
78581;SDS011;67878;46.242;5.974;2023-11-21T09:39:35;2.33;;;1.10;;
78581;SDS011;67878;46.242;5.974;2023-11-21T09:42:07;2.63;;;1.13;;
78581;SDS011;67878;46.242;5.974;2023-11-21T09:44:36;2.47;;;1.27;;
78581;SDS011;67878;46.242;5.974;2023-11-21T09:47:10;3.00;;;1.30;;
78581;SDS011;67878;46.242;5.974;2023-11-21T09:49:41;3.10;;;1.40;;
78581;SDS011;67878;46.242;5.974;2023-11-21T09:52:12;2.03;;;1.20;;
78581;SDS011;67878;46.242;5.974;2023-11-21T09:55:03;2.38;;;1.00;;
78581;SDS011;67878;46.242;5.974;2023-11-21T09:57:30;1.85;;;1.20;;
78581;SDS011;67878;46.242;5.974;2023-11-21T09:59:57;3.17;;;1.13;;
78581;SDS011;67878;46.242;5.974;2023-11-21T10:02:29;2.05;;;1.10;;
78581;SDS011;67878;46.242;5.974;2023-11-21T10:04:57;1.85;;;1.15;;
78581;SDS011;67878;46.242;5.974;2023-11-21T10:07:25;2.47;;;1.13;;
78581;SDS011;67878;46.242;5.974;2023-11-21T10:09:51;1.83;;;1.30;;
78581;SDS011;67878;46.242;5.974;2023-11-21T10:12:18;2.08;;;1.45;;
78581;SDS011;67878;46.242;5.974;2023-11-21T10:17:13;1.80;;;1.15;;
78581;SDS011;67878;46.242;5.974;2023-11-21T10:19:41;2.42;;;1.20;;
78581;SDS011;67878;46.242;5.974;2023-11-21T10:22:07;2.08;;;0.90;;
78581;SDS011;67878;46.242;5.974;2023-11-21T10:24:34;2.22;;;1.00;;
78581;SDS011;67878;46.242;5.974;2023-11-21T10:26:59;2.25;;;1.10;;
78581;SDS011;67878;46.242;5.974;2023-11-21T10:29:28;2.10;;;1.30;;
78581;SDS011;67878;46.242;5.974;2023-11-21T10:31:55;1.13;;;0.98;;
78581;SDS011;67878;46.242;5.974;2023-11-21T10:34:24;2.08;;;1.00;;
78581;SDS011;67878;46.242;5.974;2023-11-21T10:36:49;2.28;;;1.02;;
78581;SDS011;67878;46.242;5.974;2023-11-21T10:39:19;1.35;;;1.00;;
78581;SDS011;67878;46.242;5.974;2023-11-21T10:41:49;1.25;;;0.75;;
78581;SDS011;67878;46.242;5.974;2023-11-21T10:44:18;1.83;;;0.85;;
78581;SDS011;67878;46.242;5.974;2023-11-21T10:46:51;2.22;;;1.00;;
78581;SDS011;67878;46.242;5.974;2023-11-21T10:49:21;1.88;;;0.93;;
78581;SDS011;67878;46.242;5.974;2023-11-21T10:51:51;1.80;;;1.00;;
78581;SDS011;67878;46.242;5.974;2023-11-21T10:54:19;1.65;;;0.90;;
78581;SDS011;67878;46.242;5.974;2023-11-21T10:56:45;2.20;;;1.00;;
78581;SDS011;67878;46.242;5.974;2023-11-21T10:59:16;1.25;;;0.90;;
78581;SDS011;67878;46.242;5.974;2023-11-21T11:01:42;2.08;;;1.00;;
78581;SDS011;67878;46.242;5.974;2023-11-21T11:04:11;2.35;;;1.00;;
78581;SDS011;67878;46.242;5.974;2023-11-21T11:06:43;2.00;;;0.88;;
78581;SDS011;67878;46.242;5.974;2023-11-21T11:09:12;1.83;;;0.80;;
78581;SDS011;67878;46.242;5.974;2023-11-21T11:11:42;1.88;;;0.80;;
78581;SDS011;67878;46.242;5.974;2023-11-21T11:14:12;1.58;;;0.82;;
78581;SDS011;67878;46.242;5.974;2023-11-21T11:16:39;2.13;;;0.68;;
78581;SDS011;67878;46.242;5.974;2023-11-21T11:19:08;1.45;;;0.70;;
78581;SDS011;67878;46.242;5.974;2023-11-21T11:27:44;1.45;;;0.90;;
78581;SDS011;67878;46.242;5.974;2023-11-21T11:36:10;1.75;;;0.73;;
78581;SDS011;67878;46.242;5.974;2023-11-21T11:38:38;2.03;;;1.00;;
78581;SDS011;67878;46.242;5.974;2023-11-21T11:41:04;1.35;;;1.00;;
78581;SDS011;67878;46.242;5.974;2023-11-21T11:43:32;1.80;;;0.93;;
78581;SDS011;67878;46.242;5.974;2023-11-21T11:46:02;2.70;;;0.90;;
78581;SDS011;67878;46.242;5.974;2023-11-21T11:48:30;2.13;;;0.80;;
78581;SDS011;67878;46.242;5.974;2023-11-21T11:51:06;2.28;;;0.95;;
78581;SDS011;67878;46.242;5.974;2023-11-21T11:53:40;1.08;;;0.93;;
78581;SDS011;67878;46.242;5.974;2023-11-21T11:59:00;1.38;;;0.90;;
78581;SDS011;67878;46.242;5.974;2023-11-21T12:06:42;1.00;;;0.88;;
78581;SDS011;67878;46.242;5.974;2023-11-21T12:09:12;1.60;;;0.88;;
78581;SDS011;67878;46.242;5.974;2023-11-21T12:11:43;1.52;;;0.60;;
78581;SDS011;67878;46.242;5.974;2023-11-21T12:14:09;1.20;;;0.80;;
78581;SDS011;67878;46.242;5.974;2023-11-21T12:16:34;2.85;;;1.30;;
78581;SDS011;67878;46.242;5.974;2023-11-21T12:19:00;2.25;;;1.38;;
78581;SDS011;67878;46.242;5.974;2023-11-21T12:21:25;2.80;;;1.05;;
78581;SDS011;67878;46.242;5.974;2023-11-21T12:23:52;2.20;;;1.40;;
78581;SDS011;67878;46.242;5.974;2023-11-21T12:26:18;1.65;;;0.90;;
78581;SDS011;67878;46.242;5.974;2023-11-21T12:28:43;1.10;;;0.70;;
78581;SDS011;67878;46.242;5.974;2023-11-21T12:31:08;0.93;;;0.80;;
78581;SDS011;67878;46.242;5.974;2023-11-21T12:33:34;1.17;;;0.80;;
78581;SDS011;67878;46.242;5.974;2023-11-21T12:36:00;1.45;;;1.00;;
78581;SDS011;67878;46.242;5.974;2023-11-21T12:38:25;2.65;;;1.00;;
78581;SDS011;67878;46.242;5.974;2023-11-21T12:40:59;2.63;;;1.83;;
78581;SDS011;67878;46.242;5.974;2023-11-21T12:43:25;1.92;;;1.10;;
78581;SDS011;67878;46.242;5.974;2023-11-21T12:46:04;2.17;;;0.93;;
78581;SDS011;67878;46.242;5.974;2023-11-21T12:48:31;1.38;;;0.90;;
78581;SDS011;67878;46.242;5.974;2023-11-21T12:50:57;1.60;;;0.90;;
78581;SDS011;67878;46.242;5.974;2023-11-21T12:53:25;1.75;;;1.15;;
78581;SDS011;67878;46.242;5.974;2023-11-21T12:55:51;1.65;;;0.90;;
78581;SDS011;67878;46.242;5.974;2023-11-21T12:58:16;1.83;;;1.00;;
78581;SDS011;67878;46.242;5.974;2023-11-21T13:00:46;2.15;;;0.80;;
78581;SDS011;67878;46.242;5.974;2023-11-21T13:03:12;2.67;;;1.65;;
78581;SDS011;67878;46.242;5.974;2023-11-21T13:05:44;2.15;;;1.38;;
78581;SDS011;67878;46.242;5.974;2023-11-21T13:08:12;1.20;;;1.00;;
78581;SDS011;67878;46.242;5.974;2023-11-21T13:10:39;1.85;;;0.82;;
78581;SDS011;67878;46.242;5.974;2023-11-21T13:13:08;1.83;;;0.80;;
78581;SDS011;67878;46.242;5.974;2023-11-21T13:15:38;1.70;;;0.93;;
78581;SDS011;67878;46.242;5.974;2023-11-21T13:18:05;1.77;;;0.95;;
78581;SDS011;67878;46.242;5.974;2023-11-21T13:20:32;1.33;;;0.95;;
78581;SDS011;67878;46.242;5.974;2023-11-21T13:22:57;1.70;;;0.98;;
78581;SDS011;67878;46.242;5.974;2023-11-21T13:25:27;1.33;;;0.88;;
78581;SDS011;67878;46.242;5.974;2023-11-21T13:27:58;0.88;;;0.70;;
78581;SDS011;67878;46.242;5.974;2023-11-21T13:30:24;1.10;;;0.70;;
78581;SDS011;67878;46.242;5.974;2023-11-21T13:32:59;1.10;;;0.70;;
78581;SDS011;67878;46.242;5.974;2023-11-21T13:35:30;1.10;;;0.70;;
78581;SDS011;67878;46.242;5.974;2023-11-21T13:38:05;1.77;;;0.75;;
78581;SDS011;67878;46.242;5.974;2023-11-21T13:40:32;2.13;;;1.05;;
78581;SDS011;67878;46.242;5.974;2023-11-21T13:43:04;1.75;;;0.85;;
78581;SDS011;67878;46.242;5.974;2023-11-21T13:45:35;2.08;;;1.00;;
78581;SDS011;67878;46.242;5.974;2023-11-21T13:48:01;1.42;;;1.13;;
78581;SDS011;67878;46.242;5.974;2023-11-21T13:50:27;2.00;;;1.05;;
78581;SDS011;67878;46.242;5.974;2023-11-21T13:52:59;2.70;;;1.10;;
78581;SDS011;67878;46.242;5.974;2023-11-21T13:55:48;1.88;;;0.95;;
78581;SDS011;67878;46.242;5.974;2023-11-21T13:58:15;0.95;;;0.70;;
78581;SDS011;67878;46.242;5.974;2023-11-21T14:00:49;1.13;;;0.80;;
78581;SDS011;67878;46.242;5.974;2023-11-21T14:03:23;1.17;;;0.80;;
78581;SDS011;67878;46.242;5.974;2023-11-21T14:05:57;1.58;;;0.95;;
78581;SDS011;67878;46.242;5.974;2023-11-21T14:08:26;1.30;;;0.85;;
78581;SDS011;67878;46.242;5.974;2023-11-21T14:10:55;1.65;;;0.90;;
78581;SDS011;67878;46.242;5.974;2023-11-21T14:13:24;2.40;;;0.90;;
78581;SDS011;67878;46.242;5.974;2023-11-21T14:15:51;1.35;;;0.80;;
78581;SDS011;67878;46.242;5.974;2023-11-21T14:18:24;1.50;;;1.00;;
78581;SDS011;67878;46.242;5.974;2023-11-21T14:21:04;1.27;;;0.77;;
78581;SDS011;67878;46.242;5.974;2023-11-21T14:23:30;1.17;;;0.70;;
78581;SDS011;67878;46.242;5.974;2023-11-21T14:25:56;1.13;;;0.82;;
78581;SDS011;67878;46.242;5.974;2023-11-21T14:28:23;2.13;;;1.17;;
78581;SDS011;67878;46.242;5.974;2023-11-21T14:30:49;1.85;;;0.88;;
78581;SDS011;67878;46.242;5.974;2023-11-21T14:33:14;2.33;;;0.90;;
78581;SDS011;67878;46.242;5.974;2023-11-21T14:35:41;3.00;;;1.77;;
78581;SDS011;67878;46.242;5.974;2023-11-21T14:38:08;4.25;;;2.80;;
78581;SDS011;67878;46.242;5.974;2023-11-21T14:40:35;1.92;;;1.42;;
78581;SDS011;67878;46.242;5.974;2023-11-21T14:43:01;5.82;;;3.78;;
78581;SDS011;67878;46.242;5.974;2023-11-21T14:45:31;5.45;;;3.75;;
78581;SDS011;67878;46.242;5.974;2023-11-21T14:47:57;3.38;;;2.03;;
78581;SDS011;67878;46.242;5.974;2023-11-21T14:50:33;1.80;;;1.20;;
78581;SDS011;67878;46.242;5.974;2023-11-21T14:53:34;1.85;;;1.02;;
78581;SDS011;67878;46.242;5.974;2023-11-21T14:56:19;1.55;;;0.90;;
78581;SDS011;67878;46.242;5.974;2023-11-21T14:58:58;1.85;;;0.90;;
78581;SDS011;67878;46.242;5.974;2023-11-21T15:01:30;2.08;;;0.90;;
78581;SDS011;67878;46.242;5.974;2023-11-21T15:04:15;1.65;;;0.90;;
78581;SDS011;67878;46.242;5.974;2023-11-21T15:06:52;1.42;;;0.80;;
78581;SDS011;67878;46.242;5.974;2023-11-21T15:09:18;1.77;;;1.00;;
78581;SDS011;67878;46.242;5.974;2023-11-21T15:12:01;0.77;;;0.70;;
78581;SDS011;67878;46.242;5.974;2023-11-21T15:14:47;1.30;;;1.00;;